createdAt,value
2022-12-19T00:01:47.514Z,21.73
2022-12-19T00:04:15.824Z,22.97
2022-12-19T00:06:43.926Z,23.60
2022-12-19T00:09:11.952Z,22.03
2022-12-19T00:11:39.636Z,22.50
2022-12-19T00:14:07.543Z,21.07
2022-12-19T00:16:34.417Z,23.27
2022-12-19T00:19:02.038Z,23.07
2022-12-19T00:21:34.668Z,20.90
2022-12-19T00:24:03.433Z,22.43
2022-12-19T00:26:36.861Z,22.73
2022-12-19T00:29:14.023Z,24.47
2022-12-19T00:31:41.639Z,22.87
2022-12-19T00:34:09.944Z,22.60
2022-12-19T00:36:36.915Z,23.83
2022-12-19T00:39:06.310Z,25.10
2022-12-19T00:41:40.070Z,21.63
2022-12-19T00:44:14.059Z,21.70
2022-12-19T00:46:41.305Z,21.40
2022-12-19T00:49:09.109Z,21.73
2022-12-19T00:51:37.589Z,24.10
2022-12-19T00:54:07.448Z,21.33
2022-12-19T00:56:38.228Z,22.03
2022-12-19T00:59:06.315Z,21.77
2022-12-19T01:01:37.375Z,23.07
2022-12-19T01:06:54.611Z,21.43
2022-12-19T01:09:28.742Z,22.40
2022-12-19T01:12:13.979Z,24.43
2022-12-19T01:14:40.923Z,23.80
2022-12-19T01:17:07.860Z,21.77
2022-12-19T01:19:38.971Z,22.90
2022-12-19T01:22:09.009Z,23.27
2022-12-19T01:24:36.668Z,23.97
2022-12-19T01:27:03.642Z,25.17
2022-12-19T01:29:31.821Z,22.60
2022-12-19T01:32:00.453Z,22.93
2022-12-19T01:34:28.044Z,22.50
2022-12-19T01:36:54.978Z,21.90
2022-12-19T01:39:21.871Z,19.73
2022-12-19T01:41:51.062Z,22.23
2022-12-19T01:44:17.993Z,21.23
2022-12-19T01:46:54.107Z,20.90
2022-12-19T01:49:32.430Z,22.03
2022-12-19T01:52:06.177Z,20.23
2022-12-19T01:54:37.241Z,17.73
2022-12-19T01:57:08.791Z,23.33
2022-12-19T01:59:44.066Z,21.73
2022-12-19T02:02:19.651Z,21.00
2022-12-19T02:04:47.475Z,21.30
2022-12-19T02:07:16.601Z,18.03
2022-12-19T02:09:46.966Z,22.73
2022-12-19T02:12:14.776Z,23.73
2022-12-19T02:14:42.282Z,23.07
2022-12-19T02:17:43.298Z,21.90
2022-12-19T02:20:24.511Z,20.57
2022-12-19T02:23:11.104Z,22.37
2022-12-19T02:25:58.025Z,18.17
2022-12-19T02:28:43.063Z,23.50
2022-12-19T02:31:39.772Z,22.13
2022-12-19T02:34:17.085Z,20.40
2022-12-19T02:36:55.643Z,20.23
2022-12-19T02:39:55.582Z,20.07
2022-12-19T02:42:37.357Z,20.03
2022-12-19T02:45:08.085Z,21.37
2022-12-19T02:47:36.356Z,21.50
2022-12-19T02:50:04.598Z,23.20
2022-12-19T02:52:31.499Z,20.03
2022-12-19T02:55:04.861Z,22.33
2022-12-19T02:57:40.504Z,22.50
2022-12-19T03:00:18.202Z,22.30
2022-12-19T03:03:03.515Z,22.57
2022-12-19T03:05:46.716Z,21.73
2022-12-19T03:08:41.875Z,22.77
2022-12-19T03:11:13.569Z,21.40
2022-12-19T03:14:04.764Z,23.23
2022-12-19T03:16:35.987Z,21.33
2022-12-19T03:19:04.342Z,18.30
2022-12-19T03:22:03.672Z,20.53
2022-12-19T03:24:31.075Z,20.13
2022-12-19T03:27:01.342Z,20.03
2022-12-19T03:29:40.878Z,21.40
2022-12-19T03:32:12.521Z,20.47
2022-12-19T03:34:50.723Z,20.87
2022-12-19T03:37:22.455Z,14.97
2022-12-19T03:39:54.872Z,19.43
2022-12-19T03:42:43.816Z,19.60
2022-12-19T03:45:13.554Z,20.13
2022-12-19T03:47:47.981Z,22.17
2022-12-19T03:50:15.765Z,18.17
2022-12-19T03:52:52.654Z,23.13
2022-12-19T03:55:45.449Z,21.67
2022-12-19T03:58:20.857Z,20.77
2022-12-19T04:00:49.601Z,21.33
2022-12-19T04:03:18.393Z,20.77
2022-12-19T04:05:48.468Z,23.13
2022-12-19T04:08:16.773Z,19.07
2022-12-19T04:10:57.808Z,23.10
2022-12-19T04:13:40.859Z,23.57
2022-12-19T04:16:35.357Z,22.50
2022-12-19T04:19:15.774Z,20.73
2022-12-19T04:21:49.459Z,20.03
2022-12-19T04:24:24.342Z,22.13
2022-12-19T04:26:54.019Z,20.57
2022-12-19T04:29:22.603Z,21.60
2022-12-19T04:31:50.904Z,19.87
2022-12-19T04:34:20.446Z,20.90
2022-12-19T04:36:49.061Z,19.97
2022-12-19T04:39:16.332Z,18.77
2022-12-19T04:41:43.221Z,21.07
2022-12-19T04:44:10.094Z,21.77
2022-12-19T04:46:36.990Z,23.50
2022-12-19T04:49:03.930Z,19.83
2022-12-19T04:51:30.803Z,21.87
2022-12-19T04:53:58.206Z,19.90
2022-12-19T04:56:25.214Z,20.63
2022-12-19T04:58:57.570Z,21.40
2022-12-19T05:01:24.732Z,19.30
2022-12-19T05:03:55.777Z,20.23
2022-12-19T05:06:24.655Z,20.30
2022-12-19T05:08:51.653Z,20.27
2022-12-19T05:11:19.971Z,19.13
2022-12-19T05:13:47.433Z,20.60
2022-12-19T05:16:16.008Z,21.40
2022-12-19T05:18:43.713Z,19.97
2022-12-19T05:21:11.123Z,19.07
2022-12-19T05:23:38.553Z,20.13
2022-12-19T05:26:06.831Z,20.07
2022-12-19T05:28:34.679Z,20.53
2022-12-19T05:31:10.145Z,19.00
2022-12-19T05:33:38.012Z,20.00
2022-12-19T05:36:06.118Z,20.00
2022-12-19T05:38:33.221Z,18.73
2022-12-19T05:41:00.365Z,18.40
2022-12-19T05:43:28.188Z,17.93
2022-12-19T05:45:55.336Z,18.80
2022-12-19T05:48:22.630Z,17.30
2022-12-19T05:50:50.515Z,18.30
2022-12-19T05:53:25.763Z,18.13
2022-12-19T05:55:53.439Z,19.40
2022-12-19T05:58:20.500Z,17.17
2022-12-19T06:00:47.389Z,17.77
2022-12-19T06:03:14.668Z,18.47
2022-12-19T06:05:41.662Z,19.17
2022-12-19T06:08:09.363Z,19.13
2022-12-19T06:10:36.573Z,18.53
2022-12-19T06:13:03.572Z,17.87
2022-12-19T06:15:30.501Z,17.77
2022-12-19T06:17:57.416Z,16.17
2022-12-19T06:20:24.278Z,17.00
2022-12-19T06:22:51.339Z,16.73
2022-12-19T06:25:18.315Z,16.00
2022-12-19T06:27:45.195Z,16.83
2022-12-19T06:30:12.528Z,16.63
2022-12-19T06:32:39.503Z,16.30
2022-12-19T06:35:08.096Z,18.47
2022-12-19T06:37:37.862Z,17.70
2022-12-19T06:40:07.233Z,15.37
2022-12-19T06:42:34.185Z,16.13
2022-12-19T06:45:01.301Z,14.77
2022-12-19T06:47:28.179Z,15.20
2022-12-19T06:49:55.262Z,16.07
2022-12-19T06:52:22.379Z,15.37
2022-12-19T06:54:49.477Z,16.57
2022-12-19T06:57:16.375Z,15.73
2022-12-19T06:59:43.438Z,15.83
2022-12-19T07:02:28.547Z,15.60
2022-12-19T07:05:03.834Z,16.37
2022-12-19T07:07:31.043Z,15.40
2022-12-19T07:09:58.037Z,15.47
2022-12-19T07:12:24.902Z,14.60
2022-12-19T07:14:53.695Z,15.53
2022-12-19T07:17:24.016Z,15.77
2022-12-19T07:19:52.910Z,16.13
2022-12-19T07:22:20.582Z,15.30
2022-12-19T07:24:47.858Z,16.53
2022-12-19T07:27:15.227Z,15.23
2022-12-19T07:29:42.151Z,15.50
2022-12-19T07:32:09.229Z,15.73
2022-12-19T07:34:36.149Z,17.50
2022-12-19T07:37:02.968Z,14.97
2022-12-19T07:39:29.965Z,14.70
2022-12-19T07:41:56.881Z,14.73
2022-12-19T07:44:23.853Z,14.97
2022-12-19T07:46:50.790Z,13.40
2022-12-19T07:49:22.488Z,14.80
2022-12-19T07:51:49.861Z,12.20
2022-12-19T07:54:17.211Z,14.57
2022-12-19T07:56:44.209Z,14.20
2022-12-19T07:59:13.114Z,13.40
2022-12-19T08:01:40.198Z,14.17
2022-12-19T08:04:07.234Z,14.57
2022-12-19T08:06:39.166Z,13.97
2022-12-19T08:09:08.147Z,14.33
2022-12-19T08:11:35.165Z,14.13
2022-12-19T08:14:02.459Z,13.17
2022-12-19T08:16:29.501Z,13.43
2022-12-19T08:18:56.540Z,12.97
2022-12-19T08:21:24.192Z,12.73
2022-12-19T08:23:52.192Z,11.57
2022-12-19T08:26:25.045Z,12.47
2022-12-19T08:28:54.421Z,12.70
2022-12-19T08:31:24.361Z,11.90
2022-12-19T08:33:53.660Z,12.50
2022-12-19T08:36:21.560Z,12.20
2022-12-19T08:38:49.475Z,12.90
2022-12-19T08:41:17.531Z,12.27
2022-12-19T08:43:50.592Z,14.10
2022-12-19T08:46:18.180Z,11.70
2022-12-19T08:48:45.257Z,13.20
2022-12-19T08:51:14.562Z,12.33
2022-12-19T08:53:43.399Z,12.53
2022-12-19T08:56:23.523Z,12.73
2022-12-19T08:58:53.506Z,12.70
2022-12-19T09:01:23.947Z,11.10
2022-12-19T09:04:14.920Z,12.53
2022-12-19T09:06:38.423Z,11.43
2022-12-19T09:09:05.726Z,10.90
2022-12-19T09:11:33.285Z,11.40
2022-12-19T09:14:05.305Z,11.20
2022-12-19T09:16:32.513Z,11.47
2022-12-19T09:18:59.640Z,12.13
2022-12-19T09:21:31.291Z,11.97
2022-12-19T09:24:07.080Z,10.20
2022-12-19T09:26:35.274Z,10.23
2022-12-19T09:29:03.721Z,11.50
2022-12-19T09:31:37.519Z,11.17
2022-12-19T09:34:04.918Z,11.27
2022-12-19T09:36:32.092Z,11.37
2022-12-19T09:38:59.567Z,10.73
2022-12-19T09:41:34.147Z,11.27
2022-12-19T09:44:20.332Z,10.67
2022-12-19T09:46:58.429Z,11.37
2022-12-19T09:49:29.882Z,10.17
2022-12-19T09:52:06.740Z,10.90
2022-12-19T09:54:42.949Z,11.00
2022-12-19T09:57:35.591Z,11.23
2022-12-19T10:00:11.297Z,12.00
2022-12-19T10:02:54.377Z,11.43
2022-12-19T10:06:58.939Z,11.63
2022-12-19T10:09:26.821Z,12.00
2022-12-19T10:12:38.707Z,11.30
2022-12-19T10:14:54.647Z,11.10
2022-12-19T10:17:41.153Z,11.47
2022-12-19T10:20:41.728Z,10.13
2022-12-19T10:23:39.755Z,11.30
2022-12-19T10:26:09.812Z,11.20
2022-12-19T10:29:00.946Z,11.73
2022-12-19T10:31:36.810Z,12.00
2022-12-19T10:34:30.092Z,11.73
2022-12-19T10:37:26.691Z,12.70
2022-12-19T10:39:57.613Z,12.37
2022-12-19T10:42:33.782Z,11.47
2022-12-19T10:45:06.502Z,11.70
2022-12-19T10:47:33.450Z,12.10
2022-12-19T10:50:03.978Z,11.77
2022-12-19T10:53:07.491Z,11.83
2022-12-19T10:55:45.667Z,11.40
2022-12-19T10:58:24.613Z,12.43
2022-12-19T11:01:05.272Z,12.47
2022-12-19T11:03:34.226Z,11.40
2022-12-19T11:06:03.113Z,11.60
2022-12-19T11:08:33.058Z,11.23
2022-12-19T11:12:52.918Z,10.80
2022-12-19T11:18:41.584Z,10.17
2022-12-19T11:21:21.368Z,11.27
2022-12-19T11:29:19.607Z,10.40
2022-12-19T11:30:35.805Z,10.20
2022-12-19T11:30:38.840Z,10.73
2022-12-19T11:30:58.892Z,10.17
2022-12-19T11:34:35.961Z,11.03
2022-12-19T11:37:21.404Z,11.07
2022-12-19T11:40:04.955Z,11.20
2022-12-19T11:46:13.876Z,10.60
2022-12-19T11:48:49.514Z,11.50
2022-12-19T11:51:54.179Z,10.23
2022-12-19T11:54:37.686Z,14.90
2022-12-19T11:57:04.670Z,11.60
2022-12-19T11:59:35.568Z,10.50
2022-12-19T12:02:39.724Z,10.20
2022-12-19T12:05:46.563Z,10.90
2022-12-19T12:10:46.056Z,10.10
2022-12-19T12:17:19.512Z,9.60
2022-12-19T12:23:13.224Z,9.17
2022-12-19T12:31:17.720Z,10.80
2022-12-19T12:31:40.562Z,10.33
2022-12-19T12:31:47.724Z,9.57
2022-12-19T12:31:48.721Z,10.63
2022-12-19T12:32:06.511Z,10.57
2022-12-19T12:37:03.627Z,10.00
2022-12-19T12:40:07.854Z,10.17
2022-12-19T12:42:52.080Z,11.57
2022-12-19T12:45:26.664Z,10.90
2022-12-19T12:47:54.309Z,12.30
2022-12-19T12:50:25.235Z,11.40
2022-12-19T12:53:06.873Z,10.97
2022-12-19T12:55:40.243Z,11.27
2022-12-19T12:58:45.820Z,10.80
2022-12-19T13:01:33.560Z,11.03
2022-12-19T13:04:12.977Z,10.90
2022-12-19T13:06:43.151Z,10.83
2022-12-19T13:09:10.170Z,11.23
2022-12-19T13:12:00.276Z,10.83
2022-12-19T13:14:37.204Z,10.13
2022-12-19T13:17:09.394Z,10.10
2022-12-19T13:19:39.353Z,11.83
2022-12-19T13:22:09.320Z,11.57
2022-12-19T13:24:45.522Z,10.90
2022-12-19T13:27:21.741Z,11.87
2022-12-19T13:30:01.166Z,10.37
2022-12-19T13:32:33.131Z,11.20
2022-12-19T13:35:23.620Z,11.17
2022-12-19T13:39:48.418Z,11.10
2022-12-19T13:41:22.529Z,11.13
2022-12-19T13:43:49.987Z,11.83
2022-12-19T13:46:42.879Z,11.90
2022-12-19T13:49:15.845Z,10.43
2022-12-19T13:51:55.216Z,10.50
2022-12-19T13:54:34.818Z,10.27
2022-12-19T13:57:08.167Z,11.17
2022-12-19T13:59:39.888Z,11.50
2022-12-19T14:02:15.525Z,11.67
2022-12-19T14:04:44.975Z,11.33
2022-12-19T14:07:30.460Z,12.30
2022-12-19T14:11:34.533Z,11.43
2022-12-19T14:14:03.293Z,11.20
2022-12-19T14:16:34.815Z,11.00
2022-12-19T14:19:27.839Z,11.57
2022-12-19T14:22:11.514Z,10.80
2022-12-19T14:24:53.009Z,11.70
2022-12-19T14:28:24.866Z,11.20
2022-12-19T14:30:32.260Z,12.60
2022-12-19T14:33:47.267Z,11.77
2022-12-19T14:36:09.710Z,12.37
2022-12-19T14:39:22.264Z,11.47
2022-12-19T14:42:03.846Z,12.97
2022-12-19T14:54:10.033Z,12.40
2022-12-19T14:54:13.313Z,11.57
2022-12-19T14:54:31.033Z,11.60
2022-12-19T14:54:50.510Z,11.43
2022-12-19T14:59:03.054Z,12.30
2022-12-19T15:01:33.260Z,12.67
2022-12-19T15:04:51.447Z,11.77
2022-12-19T15:07:10.487Z,12.10
2022-12-19T15:11:08.585Z,10.67
2022-12-19T15:14:57.500Z,11.47
2022-12-19T15:16:05.025Z,11.93
2022-12-19T15:18:42.749Z,11.57
2022-12-19T15:21:14.711Z,11.07
2022-12-19T15:23:44.860Z,11.20
2022-12-19T15:26:15.201Z,12.07
2022-12-19T15:28:44.070Z,15.30
2022-12-19T15:31:29.931Z,13.97
2022-12-19T15:34:32.785Z,12.23
2022-12-19T15:36:44.759Z,12.97
2022-12-19T15:39:11.740Z,14.30
2022-12-19T15:41:38.601Z,16.93
2022-12-19T15:44:15.268Z,12.70
2022-12-19T15:46:48.296Z,11.53
2022-12-19T15:49:18.262Z,14.50
2022-12-19T15:51:46.160Z,14.27
2022-12-19T15:57:00.836Z,13.70
2022-12-19T15:59:39.103Z,12.50
2022-12-19T16:02:16.911Z,13.00
2022-12-19T16:04:45.627Z,12.00
2022-12-19T16:07:18.394Z,13.30
2022-12-19T16:09:45.910Z,13.43
2022-12-19T16:12:19.698Z,12.60
2022-12-19T16:14:51.725Z,12.10
2022-12-19T16:17:22.317Z,11.70
2022-12-19T16:19:50.338Z,11.97
2022-12-19T16:22:24.540Z,11.87
2022-12-19T16:24:53.120Z,10.27
2022-12-19T16:27:31.722Z,12.30
2022-12-19T16:30:18.616Z,10.67
2022-12-19T16:32:46.647Z,12.43
2022-12-19T16:35:24.040Z,12.37
2022-12-19T16:38:01.289Z,11.10
2022-12-19T16:40:28.465Z,10.70
2022-12-19T16:43:10.641Z,10.07
2022-12-19T16:45:38.207Z,11.13
2022-12-19T16:48:21.074Z,11.27
2022-12-19T16:50:48.717Z,11.53
2022-12-19T16:53:16.526Z,11.40
2022-12-19T16:55:44.772Z,13.53
2022-12-19T16:58:23.689Z,11.10
2022-12-19T17:00:52.660Z,9.70
2022-12-19T17:03:34.678Z,10.57
2022-12-19T17:06:01.904Z,11.43
2022-12-19T17:08:28.932Z,11.13
2022-12-19T17:10:56.008Z,10.67
2022-12-19T17:13:24.867Z,11.07
2022-12-19T17:15:56.712Z,10.27
2022-12-19T17:18:34.823Z,9.73
2022-12-19T17:21:02.149Z,10.10
2022-12-19T17:23:31.028Z,9.67
2022-12-19T17:26:01.854Z,10.07
2022-12-19T17:28:29.596Z,10.20
2022-12-19T17:30:59.612Z,10.40
2022-12-19T17:33:36.660Z,10.63
2022-12-19T17:36:05.496Z,11.37
2022-12-19T17:38:33.113Z,9.37
2022-12-19T17:41:00.563Z,10.23
2022-12-19T17:43:27.557Z,10.10
2022-12-19T17:45:54.813Z,9.40
2022-12-19T17:48:33.178Z,9.07
2022-12-19T17:51:00.626Z,9.47
2022-12-19T17:53:27.927Z,9.63
2022-12-19T17:55:55.050Z,10.67
2022-12-19T17:58:22.246Z,11.17
2022-12-19T18:00:50.195Z,9.37
2022-12-19T18:03:24.528Z,9.60
2022-12-19T18:05:53.485Z,9.20
2022-12-19T18:08:29.949Z,11.43
2022-12-19T18:11:01.872Z,11.97
2022-12-19T18:13:30.545Z,10.67
2022-12-19T18:16:03.073Z,8.97
2022-12-19T18:18:39.456Z,9.33
2022-12-19T18:21:06.803Z,9.10
2022-12-19T18:23:34.149Z,8.90
2022-12-19T18:26:02.166Z,8.60
2022-12-19T18:28:30.501Z,8.90
2022-12-19T18:31:18.117Z,9.40
2022-12-19T18:33:47.768Z,8.77
2022-12-19T18:36:24.156Z,8.93
2022-12-19T18:38:52.175Z,8.57
2022-12-19T18:41:20.145Z,9.57
2022-12-19T18:43:48.660Z,8.30
2022-12-19T18:46:19.342Z,9.13
2022-12-19T18:48:46.446Z,9.23
2022-12-19T18:51:19.120Z,8.30
2022-12-19T18:53:47.743Z,9.37
2022-12-19T18:56:15.004Z,8.60
2022-12-19T18:58:42.777Z,9.13
2022-12-19T19:01:20.308Z,8.47
2022-12-19T19:03:56.247Z,10.03
2022-12-19T19:06:26.665Z,9.60
2022-12-19T19:08:56.843Z,8.83
2022-12-19T19:11:25.008Z,11.07
2022-12-19T19:13:54.155Z,9.13
2022-12-19T19:16:29.061Z,10.80
2022-12-19T19:18:57.265Z,10.20
2022-12-19T19:21:27.811Z,8.23
2022-12-19T19:24:07.136Z,7.73
2022-12-19T19:26:34.475Z,7.63
2022-12-19T19:29:01.713Z,7.73
2022-12-19T19:31:31.956Z,7.90
2022-12-19T19:34:29.449Z,8.13
2022-12-19T19:36:59.339Z,8.30
2022-12-19T19:39:27.897Z,8.73
2022-12-19T19:41:56.288Z,8.53
2022-12-19T19:44:23.720Z,9.60
2022-12-19T19:46:50.834Z,10.10
2022-12-19T19:49:18.423Z,9.47
2022-12-19T19:51:45.425Z,11.10
2022-12-19T19:54:12.630Z,8.87
2022-12-19T19:56:39.792Z,9.03
2022-12-19T19:59:07.853Z,7.70
2022-12-19T20:01:35.261Z,8.80
2022-12-19T20:04:02.554Z,8.53
2022-12-19T20:06:29.920Z,8.87
2022-12-19T20:08:56.859Z,8.37
2022-12-19T20:11:24.074Z,8.87
2022-12-19T20:13:50.983Z,8.33
2022-12-19T20:16:18.837Z,8.20
2022-12-19T20:18:51.204Z,10.03
2022-12-19T20:21:19.771Z,9.93
2022-12-19T20:23:46.800Z,9.33
2022-12-19T20:26:15.587Z,8.87
2022-12-19T20:28:48.501Z,8.60
2022-12-19T20:31:21.717Z,8.77
2022-12-19T20:33:50.574Z,9.70
2022-12-19T20:36:18.009Z,10.90
2022-12-19T20:38:45.125Z,10.27
2022-12-19T20:41:12.199Z,10.30
2022-12-19T20:43:39.807Z,8.70
2022-12-19T20:46:16.903Z,8.83
2022-12-19T20:48:45.108Z,9.43
2022-12-19T20:51:14.047Z,8.30
2022-12-19T20:53:44.379Z,11.57
2022-12-19T20:56:14.734Z,12.07
2022-12-19T20:58:42.189Z,11.03
2022-12-19T21:01:12.182Z,10.20
2022-12-19T21:03:39.939Z,10.60
2022-12-19T21:06:08.824Z,9.73
2022-12-19T21:08:36.205Z,9.33
2022-12-19T21:11:04.684Z,10.03
2022-12-19T21:13:32.145Z,10.90
2022-12-19T21:16:03.215Z,10.30
2022-12-19T21:18:30.738Z,10.13
2022-12-19T21:20:59.081Z,11.60
2022-12-19T21:23:26.449Z,10.73
2022-12-19T21:25:57.886Z,10.93
2022-12-19T21:28:25.434Z,10.90
2022-12-19T21:31:07.587Z,10.63
2022-12-19T21:33:34.761Z,10.80
2022-12-19T21:36:07.504Z,10.20
2022-12-19T21:38:34.407Z,9.37
2022-12-19T21:41:06.202Z,8.20
2022-12-19T21:43:36.941Z,9.30
2022-12-19T21:46:12.565Z,9.03
2022-12-19T21:48:41.311Z,8.67
2022-12-19T21:51:09.662Z,8.30
2022-12-19T21:53:37.971Z,8.93
2022-12-19T21:56:06.128Z,8.70
2022-12-19T21:58:33.063Z,9.40
2022-12-19T22:01:08.988Z,9.13
2022-12-19T22:03:37.419Z,7.90
2022-12-19T22:06:05.550Z,7.77
2022-12-19T22:08:32.765Z,7.87
2022-12-19T22:10:59.832Z,9.63
2022-12-19T22:13:26.779Z,9.60
2022-12-19T22:15:53.916Z,9.03
2022-12-19T22:18:20.826Z,9.60
2022-12-19T22:20:47.777Z,9.37
2022-12-19T22:23:14.650Z,9.13
2022-12-19T22:25:41.632Z,9.57
2022-12-19T22:28:08.567Z,9.43
2022-12-19T22:30:36.506Z,8.23
2022-12-19T22:33:04.529Z,8.30
2022-12-19T22:35:34.338Z,8.17
2022-12-19T22:38:01.332Z,7.57
2022-12-19T22:40:28.488Z,7.63
2022-12-19T22:42:55.345Z,7.67
2022-12-19T22:45:25.593Z,8.30
2022-12-19T22:47:52.535Z,11.17
2022-12-19T22:50:19.705Z,8.97
2022-12-19T22:52:46.524Z,8.40
2022-12-19T22:55:13.439Z,8.23
2022-12-19T22:57:40.784Z,8.47
2022-12-19T23:00:10.948Z,8.43
2022-12-19T23:02:42.028Z,7.93
2022-12-19T23:05:09.435Z,8.27
2022-12-19T23:07:36.321Z,8.07
2022-12-19T23:10:03.595Z,7.47
2022-12-19T23:12:30.561Z,7.53
2022-12-19T23:14:57.622Z,9.10
2022-12-19T23:17:24.677Z,9.33
2022-12-19T23:19:51.569Z,9.10
2022-12-19T23:22:18.562Z,8.60
2022-12-19T23:24:45.524Z,12.30
2022-12-19T23:27:12.480Z,12.10
2022-12-19T23:29:39.608Z,12.70
2022-12-19T23:32:06.718Z,9.77
2022-12-19T23:34:34.024Z,9.00
2022-12-19T23:37:16.290Z,9.03
2022-12-19T23:39:46.284Z,10.63
2022-12-19T23:42:13.155Z,8.80
2022-12-19T23:44:40.181Z,8.83
2022-12-19T23:47:07.259Z,9.17
2022-12-19T23:49:34.283Z,8.67
2022-12-19T23:52:01.311Z,8.20
2022-12-19T23:54:28.234Z,8.10
2022-12-19T23:56:55.203Z,8.57
2022-12-19T23:59:22.710Z,8.33
